sensor_id;sensor_type;location;lat;lon;timestamp;pressure;altitude;pressure_sealevel;temperature;humidity
27144;BME280;14672;50.250;8.312;2022-10-31T00:00:45;99308.13;;;14.85;66.97
27144;BME280;14672;50.250;8.312;2022-10-31T00:03:11;99313.97;;;14.81;67.08
27144;BME280;14672;50.250;8.312;2022-10-31T00:05:42;99314.13;;;14.87;67.52
27144;BME280;14672;50.250;8.312;2022-10-31T00:08:08;99312.41;;;14.80;66.96
27144;BME280;14672;50.250;8.312;2022-10-31T00:10:41;99313.97;;;14.90;67.19
27144;BME280;14672;50.250;8.312;2022-10-31T00:13:08;99317.78;;;14.78;67.54
27144;BME280;14672;50.250;8.312;2022-10-31T00:15:38;99314.63;;;14.76;67.51
27144;BME280;14672;50.250;8.312;2022-10-31T00:18:06;99321.63;;;14.75;67.33
27144;BME280;14672;50.250;8.312;2022-10-31T00:20:33;99326.06;;;14.85;67.05
27144;BME280;14672;50.250;8.312;2022-10-31T00:23:00;99332.91;;;14.79;67.14
27144;BME280;14672;50.250;8.312;2022-10-31T00:25:28;99328.78;;;14.80;66.78
27144;BME280;14672;50.250;8.312;2022-10-31T00:27:55;99332.72;;;14.73;67.33
27144;BME280;14672;50.250;8.312;2022-10-31T00:30:21;99329.22;;;14.78;67.05
27144;BME280;14672;50.250;8.312;2022-10-31T00:32:46;99333.22;;;14.81;66.90
27144;BME280;14672;50.250;8.312;2022-10-31T00:35:12;99322.41;;;14.76;67.35
27144;BME280;14672;50.250;8.312;2022-10-31T00:37:38;99327.97;;;14.70;67.42
27144;BME280;14672;50.250;8.312;2022-10-31T00:40:04;99332.72;;;14.73;67.19
27144;BME280;14672;50.250;8.312;2022-10-31T00:42:30;99335.59;;;14.73;68.09
27144;BME280;14672;50.250;8.312;2022-10-31T00:44:56;99331.94;;;14.64;68.32
27144;BME280;14672;50.250;8.312;2022-10-31T00:47:22;99334.00;;;14.72;68.26
27144;BME280;14672;50.250;8.312;2022-10-31T00:49:47;99329.09;;;14.73;67.48
27144;BME280;14672;50.250;8.312;2022-10-31T00:52:13;99328.59;;;14.74;67.21
27144;BME280;14672;50.250;8.312;2022-10-31T00:54:39;99334.94;;;14.69;67.42
27144;BME280;14672;50.250;8.312;2022-10-31T00:57:04;99331.47;;;14.74;67.31
27144;BME280;14672;50.250;8.312;2022-10-31T00:59:30;99324.00;;;14.77;67.62
27144;BME280;14672;50.250;8.312;2022-10-31T01:01:56;99328.75;;;14.71;67.25
27144;BME280;14672;50.250;8.312;2022-10-31T01:04:22;99327.00;;;14.73;67.16
27144;BME280;14672;50.250;8.312;2022-10-31T01:06:47;99324.16;;;14.64;67.36
27144;BME280;14672;50.250;8.312;2022-10-31T01:09:13;99323.50;;;14.69;67.34
27144;BME280;14672;50.250;8.312;2022-10-31T01:11:39;99320.00;;;14.65;67.44
27144;BME280;14672;50.250;8.312;2022-10-31T01:14:05;99325.59;;;14.60;67.09
27144;BME280;14672;50.250;8.312;2022-10-31T01:16:30;99327.63;;;14.59;67.23
27144;BME280;14672;50.250;8.312;2022-10-31T01:18:56;99322.22;;;14.61;67.17
27144;BME280;14672;50.250;8.312;2022-10-31T01:21:26;99328.75;;;14.52;68.12
27144;BME280;14672;50.250;8.312;2022-10-31T01:23:55;99322.09;;;14.55;67.74
27144;BME280;14672;50.250;8.312;2022-10-31T01:26:30;99317.16;;;14.56;67.94
27144;BME280;14672;50.250;8.312;2022-10-31T01:29:03;99317.78;;;14.51;67.95
27144;BME280;14672;50.250;8.312;2022-10-31T01:31:33;99314.94;;;14.60;67.89
27144;BME280;14672;50.250;8.312;2022-10-31T01:33:59;99307.63;;;14.59;67.96
27144;BME280;14672;50.250;8.312;2022-10-31T01:36:35;99304.94;;;14.55;67.88
27144;BME280;14672;50.250;8.312;2022-10-31T01:39:07;99305.56;;;14.50;68.44
27144;BME280;14672;50.250;8.312;2022-10-31T01:41:36;99301.44;;;14.51;67.69
27144;BME280;14672;50.250;8.312;2022-10-31T01:46:49;99310.66;;;14.55;67.78
27144;BME280;14672;50.250;8.312;2022-10-31T01:49:41;99309.22;;;14.60;68.46
27144;BME280;14672;50.250;8.312;2022-10-31T01:52:46;99316.38;;;14.55;67.76
27144;BME280;14672;50.250;8.312;2022-10-31T01:55:23;99315.88;;;14.48;68.15
27144;BME280;14672;50.250;8.312;2022-10-31T01:57:54;99314.31;;;14.56;68.66
27144;BME280;14672;50.250;8.312;2022-10-31T02:00:21;99316.38;;;14.55;68.52
27144;BME280;14672;50.250;8.312;2022-10-31T02:02:49;99318.72;;;14.57;68.63
27144;BME280;14672;50.250;8.312;2022-10-31T02:05:24;99313.31;;;14.50;68.39
27144;BME280;14672;50.250;8.312;2022-10-31T02:08:26;99306.19;;;14.54;68.33
27144;BME280;14672;50.250;8.312;2022-10-31T02:10:53;99316.81;;;14.54;68.44
27144;BME280;14672;50.250;8.312;2022-10-31T02:13:20;99312.06;;;14.51;68.72
27144;BME280;14672;50.250;8.312;2022-10-31T02:15:53;99310.78;;;14.61;68.01
27144;BME280;14672;50.250;8.312;2022-10-31T02:18:21;99309.22;;;14.60;68.10
27144;BME280;14672;50.250;8.312;2022-10-31T02:21:15;99312.72;;;14.55;68.57
27144;BME280;14672;50.250;8.312;2022-10-31T02:26:47;99312.53;;;14.58;68.23
27144;BME280;14672;50.250;8.312;2022-10-31T02:29:45;99318.13;;;14.53;68.65
27144;BME280;14672;50.250;8.312;2022-10-31T02:38:38;99302.22;;;14.52;68.08
27144;BME280;14672;50.250;8.312;2022-10-31T02:47:14;99293.00;;;14.48;68.57
27144;BME280;14672;50.250;8.312;2022-10-31T02:50:04;99303.19;;;14.49;68.34
27144;BME280;14672;50.250;8.312;2022-10-31T02:52:35;99299.50;;;14.39;68.71
27144;BME280;14672;50.250;8.312;2022-10-31T02:58:09;99298.06;;;14.35;68.78
27144;BME280;14672;50.250;8.312;2022-10-31T03:07:11;99287.28;;;14.39;68.17
27144;BME280;14672;50.250;8.312;2022-10-31T03:12:59;99294.88;;;14.33;68.67
27144;BME280;14672;50.250;8.312;2022-10-31T03:15:41;99293.47;;;14.37;68.48
27144;BME280;14672;50.250;8.312;2022-10-31T03:18:34;99299.00;;;14.32;68.90
27144;BME280;14672;50.250;8.312;2022-10-31T03:23:54;99298.31;;;14.19;69.28
27144;BME280;14672;50.250;8.312;2022-10-31T03:26:22;99292.63;;;14.28;68.88
27144;BME280;14672;50.250;8.312;2022-10-31T03:28:57;99298.66;;;14.21;69.13
27144;BME280;14672;50.250;8.312;2022-10-31T03:31:31;99294.53;;;14.31;68.84
27144;BME280;14672;50.250;8.312;2022-10-31T03:34:00;99289.94;;;14.24;68.32
27144;BME280;14672;50.250;8.312;2022-10-31T03:36:31;99285.78;;;14.16;68.82
27144;BME280;14672;50.250;8.312;2022-10-31T03:39:02;99281.34;;;14.15;68.44
27144;BME280;14672;50.250;8.312;2022-10-31T03:41:34;99287.22;;;14.11;68.50
27144;BME280;14672;50.250;8.312;2022-10-31T03:44:10;99275.00;;;14.20;69.07
27144;BME280;14672;50.250;8.312;2022-10-31T03:46:40;99274.38;;;14.16;68.83
27144;BME280;14672;50.250;8.312;2022-10-31T03:49:07;99268.50;;;14.20;68.57
27144;BME280;14672;50.250;8.312;2022-10-31T03:54:43;99274.50;;;14.22;68.00
27144;BME280;14672;50.250;8.312;2022-10-31T03:57:18;99275.97;;;14.17;67.97
27144;BME280;14672;50.250;8.312;2022-10-31T03:59:53;99289.72;;;14.00;69.09
27144;BME280;14672;50.250;8.312;2022-10-31T04:02:26;99287.22;;;14.11;69.00
27144;BME280;14672;50.250;8.312;2022-10-31T04:04:54;99283.72;;;14.07;68.76
27144;BME280;14672;50.250;8.312;2022-10-31T04:07:21;99285.31;;;14.08;68.64
27144;BME280;14672;50.250;8.312;2022-10-31T04:09:52;99287.66;;;14.10;68.56
27144;BME280;14672;50.250;8.312;2022-10-31T04:12:19;99292.75;;;14.15;68.39
27144;BME280;14672;50.250;8.312;2022-10-31T04:14:48;99287.84;;;14.16;68.11
27144;BME280;14672;50.250;8.312;2022-10-31T04:17:18;99289.41;;;14.07;69.14
27144;BME280;14672;50.250;8.312;2022-10-31T04:19:46;99284.34;;;14.11;68.69
27144;BME280;14672;50.250;8.312;2022-10-31T04:22:12;99291.97;;;14.15;68.27
27144;BME280;14672;50.250;8.312;2022-10-31T04:24:40;99291.66;;;14.13;68.98
27144;BME280;14672;50.250;8.312;2022-10-31T04:27:06;99291.66;;;14.13;68.97
27144;BME280;14672;50.250;8.312;2022-10-31T04:29:32;99298.94;;;14.13;68.59
27144;BME280;14672;50.250;8.312;2022-10-31T04:31:58;99296.72;;;14.18;68.97
27144;BME280;14672;50.250;8.312;2022-10-31T04:34:24;99289.25;;;14.11;68.74
27144;BME280;14672;50.250;8.312;2022-10-31T04:36:49;99293.56;;;14.16;69.71
27144;BME280;14672;50.250;8.312;2022-10-31T04:39:15;99288.78;;;14.22;68.99
27144;BME280;14672;50.250;8.312;2022-10-31T04:41:41;99296.88;;;14.14;68.57
27144;BME280;14672;50.250;8.312;2022-10-31T04:44:06;99291.16;;;14.14;69.22
27144;BME280;14672;50.250;8.312;2022-10-31T04:46:32;99296.09;;;14.04;68.90
27144;BME280;14672;50.250;8.312;2022-10-31T04:48:58;99287.81;;;14.06;68.55
27144;BME280;14672;50.250;8.312;2022-10-31T04:51:24;99286.88;;;14.09;68.89
27144;BME280;14672;50.250;8.312;2022-10-31T04:53:49;99291.28;;;14.01;69.37
27144;BME280;14672;50.250;8.312;2022-10-31T04:56:15;99292.59;;;14.09;69.38
27144;BME280;14672;50.250;8.312;2022-10-31T04:58:41;99288.81;;;14.13;68.78
27144;BME280;14672;50.250;8.312;2022-10-31T05:01:07;99283.06;;;14.03;68.68
27144;BME280;14672;50.250;8.312;2022-10-31T05:03:32;99281.94;;;14.10;68.07
27144;BME280;14672;50.250;8.312;2022-10-31T05:05:58;99283.38;;;13.96;68.65
27144;BME280;14672;50.250;8.312;2022-10-31T05:08:24;99281.91;;;13.92;68.56
27144;BME280;14672;50.250;8.312;2022-10-31T05:10:49;99271.28;;;13.92;68.63
27144;BME280;14672;50.250;8.312;2022-10-31T05:13:15;99275.41;;;13.91;68.60
27144;BME280;14672;50.250;8.312;2022-10-31T05:15:41;99279.22;;;13.88;68.78
27144;BME280;14672;50.250;8.312;2022-10-31T05:18:08;99280.00;;;13.89;68.52
27144;BME280;14672;50.250;8.312;2022-10-31T05:20:34;99272.38;;;13.86;68.35
27144;BME280;14672;50.250;8.312;2022-10-31T05:23:00;99277.31;;;13.85;68.26
27144;BME280;14672;50.250;8.312;2022-10-31T05:25:28;99271.09;;;13.87;68.48
27144;BME280;14672;50.250;8.312;2022-10-31T05:27:56;99270.97;;;13.90;68.86
27144;BME280;14672;50.250;8.312;2022-10-31T05:30:26;99269.66;;;13.82;69.13
27144;BME280;14672;50.250;8.312;2022-10-31T05:32:52;99261.91;;;13.83;68.50
27144;BME280;14672;50.250;8.312;2022-10-31T05:35:25;99262.50;;;13.78;68.76
27144;BME280;14672;50.250;8.312;2022-10-31T05:37:51;99257.94;;;13.80;68.54
27144;BME280;14672;50.250;8.312;2022-10-31T05:40:19;99264.59;;;13.77;68.79
27144;BME280;14672;50.250;8.312;2022-10-31T05:42:45;99262.69;;;13.83;69.17
27144;BME280;14672;50.250;8.312;2022-10-31T05:45:16;99268.06;;;13.72;68.96
27144;BME280;14672;50.250;8.312;2022-10-31T05:47:53;99266.00;;;13.73;68.66
27144;BME280;14672;50.250;8.312;2022-10-31T05:50:19;99269.78;;;13.70;69.18
27144;BME280;14672;50.250;8.312;2022-10-31T05:52:45;99267.09;;;13.75;68.83
27144;BME280;14672;50.250;8.312;2022-10-31T05:55:11;99261.34;;;13.66;69.57
27144;BME280;14672;50.250;8.312;2022-10-31T05:57:37;99259.16;;;13.70;68.63
27144;BME280;14672;50.250;8.312;2022-10-31T06:00:05;99257.25;;;13.67;68.97
27144;BME280;14672;50.250;8.312;2022-10-31T06:02:31;99265.16;;;13.63;68.92
27144;BME280;14672;50.250;8.312;2022-10-31T06:05:00;99261.22;;;13.70;68.96
27144;BME280;14672;50.250;8.312;2022-10-31T06:07:26;99256.94;;;13.65;69.08
27144;BME280;14672;50.250;8.312;2022-10-31T06:09:52;99265.25;;;13.81;68.78
27144;BME280;14672;50.250;8.312;2022-10-31T06:12:18;99261.25;;;13.79;68.92
27144;BME280;14672;50.250;8.312;2022-10-31T06:14:44;99264.28;;;13.84;68.67
27144;BME280;14672;50.250;8.312;2022-10-31T06:17:09;99261.75;;;13.86;68.19
27144;BME280;14672;50.250;8.312;2022-10-31T06:19:35;99263.34;;;13.87;68.29
27144;BME280;14672;50.250;8.312;2022-10-31T06:22:01;99266.22;;;13.96;68.32
27144;BME280;14672;50.250;8.312;2022-10-31T06:24:26;99262.53;;;13.87;68.43
27144;BME280;14672;50.250;8.312;2022-10-31T06:26:52;99267.31;;;13.90;68.07
27144;BME280;14672;50.250;8.312;2022-10-31T06:29:18;99259.88;;;13.92;68.47
27144;BME280;14672;50.250;8.312;2022-10-31T06:31:44;99260.19;;;13.94;68.06
27144;BME280;14672;50.250;8.312;2022-10-31T06:34:09;99259.88;;;13.92;68.99
27144;BME280;14672;50.250;8.312;2022-10-31T06:36:35;99262.22;;;13.94;69.08
27144;BME280;14672;50.250;8.312;2022-10-31T06:39:01;99255.44;;;14.00;68.54
27144;BME280;14672;50.250;8.312;2022-10-31T06:41:27;99254.03;;;14.05;68.84
27144;BME280;14672;50.250;8.312;2022-10-31T06:43:52;99253.88;;;14.08;68.97
27144;BME280;14672;50.250;8.312;2022-10-31T06:46:18;99252.59;;;14.09;68.89
27144;BME280;14672;50.250;8.312;2022-10-31T06:48:44;99255.16;;;14.17;68.84
27144;BME280;14672;50.250;8.312;2022-10-31T06:51:09;99262.94;;;14.16;69.04
27144;BME280;14672;50.250;8.312;2022-10-31T06:53:35;99264.22;;;14.24;68.83
27144;BME280;14672;50.250;8.312;2022-10-31T06:56:01;99260.25;;;14.31;69.13
27144;BME280;14672;50.250;8.312;2022-10-31T06:58:27;99257.91;;;14.38;69.28
27144;BME280;14672;50.250;8.312;2022-10-31T07:00:52;99263.78;;;14.35;69.76
27144;BME280;14672;50.250;8.312;2022-10-31T07:03:18;99266.16;;;14.36;69.75
27144;BME280;14672;50.250;8.312;2022-10-31T07:05:46;99259.66;;;14.36;70.20
27144;BME280;14672;50.250;8.312;2022-10-31T07:08:13;99262.66;;;14.41;70.57
27144;BME280;14672;50.250;8.312;2022-10-31T07:10:41;99260.94;;;14.44;70.11
27144;BME280;14672;50.250;8.312;2022-10-31T07:13:16;99256.94;;;14.50;70.36
27144;BME280;14672;50.250;8.312;2022-10-31T07:15:43;99266.31;;;14.51;70.38
27144;BME280;14672;50.250;8.312;2022-10-31T07:18:11;99261.69;;;14.53;70.60
27144;BME280;14672;50.250;8.312;2022-10-31T07:20:37;99261.41;;;14.51;70.97
27144;BME280;14672;50.250;8.312;2022-10-31T07:23:04;99261.72;;;14.63;70.73
27144;BME280;14672;50.250;8.312;2022-10-31T07:25:32;99258.84;;;14.72;70.33
27144;BME280;14672;50.250;8.312;2022-10-31T07:27:58;99261.09;;;14.77;70.51
27144;BME280;14672;50.250;8.312;2022-10-31T07:30:24;99259.00;;;14.77;70.58
27144;BME280;14672;50.250;8.312;2022-10-31T07:32:51;99253.44;;;14.83;70.30
27144;BME280;14672;50.250;8.312;2022-10-31T07:35:24;99257.09;;;14.92;70.63
27144;BME280;14672;50.250;8.312;2022-10-31T07:37:50;99256.41;;;14.97;70.17
27144;BME280;14672;50.250;8.312;2022-10-31T07:40:17;99254.69;;;15.00;70.07
27144;BME280;14672;50.250;8.312;2022-10-31T07:42:46;99258.81;;;15.08;70.56
27144;BME280;14672;50.250;8.312;2022-10-31T07:45:16;99262.59;;;15.14;70.52
27144;BME280;14672;50.250;8.312;2022-10-31T07:47:50;99258.44;;;15.24;71.28
27144;BME280;14672;50.250;8.312;2022-10-31T07:50:26;99269.84;;;15.33;70.71
27144;BME280;14672;50.250;8.312;2022-10-31T07:53:03;99262.03;;;15.43;71.47
27144;BME280;14672;50.250;8.312;2022-10-31T07:55:30;99257.59;;;15.51;70.59
27144;BME280;14672;50.250;8.312;2022-10-31T07:58:13;99262.34;;;15.54;70.96
27144;BME280;14672;50.250;8.312;2022-10-31T08:00:42;99263.09;;;15.64;70.67
27144;BME280;14672;50.250;8.312;2022-10-31T08:03:11;99264.81;;;15.70;70.48
27144;BME280;14672;50.250;8.312;2022-10-31T08:05:38;99268.63;;;15.76;70.44
27144;BME280;14672;50.250;8.312;2022-10-31T08:08:07;99267.75;;;15.85;69.88
27144;BME280;14672;50.250;8.312;2022-10-31T08:10:33;99262.00;;;15.94;69.73
27144;BME280;14672;50.250;8.312;2022-10-31T08:13:13;99269.28;;;16.04;70.04
27144;BME280;14672;50.250;8.312;2022-10-31T08:15:40;99267.78;;;16.09;69.84
27144;BME280;14672;50.250;8.312;2022-10-31T08:18:14;99273.19;;;16.16;69.98
27144;BME280;14672;50.250;8.312;2022-10-31T08:20:42;99272.31;;;16.24;69.39
27144;BME280;14672;50.250;8.312;2022-10-31T08:23:10;99269.28;;;16.28;69.23
27144;BME280;14672;50.250;8.312;2022-10-31T08:25:37;99276.91;;;16.31;68.74
27144;BME280;14672;50.250;8.312;2022-10-31T08:28:04;99270.50;;;16.36;68.85
27144;BME280;14672;50.250;8.312;2022-10-31T08:30:32;99269.25;;;16.52;69.03
27144;BME280;14672;50.250;8.312;2022-10-31T08:33:16;99270.97;;;16.58;68.70
27144;BME280;14672;50.250;8.312;2022-10-31T08:35:43;99265.59;;;16.51;68.10
27144;BME280;14672;50.250;8.312;2022-10-31T08:38:11;99264.78;;;16.74;68.06
27144;BME280;14672;50.250;8.312;2022-10-31T08:40:38;99262.91;;;17.89;64.50
27144;BME280;14672;50.250;8.312;2022-10-31T08:43:15;99252.13;;;19.05;60.21
27144;BME280;14672;50.250;8.312;2022-10-31T08:45:43;99239.84;;;19.61;57.99
27144;BME280;14672;50.250;8.312;2022-10-31T08:48:14;99241.22;;;20.08;56.96
27144;BME280;14672;50.250;8.312;2022-10-31T08:50:42;99240.75;;;20.58;55.84
27144;BME280;14672;50.250;8.312;2022-10-31T08:53:17;99240.03;;;20.91;54.45
27144;BME280;14672;50.250;8.312;2022-10-31T08:55:45;99229.13;;;21.17;54.08
27144;BME280;14672;50.250;8.312;2022-10-31T08:58:17;99226.50;;;21.52;53.02
27144;BME280;14672;50.250;8.312;2022-10-31T09:00:45;99225.72;;;21.69;52.10
27144;BME280;14672;50.250;8.312;2022-10-31T09:03:23;99220.44;;;21.89;51.60
27144;BME280;14672;50.250;8.312;2022-10-31T09:05:50;99217.53;;;21.95;51.96
27144;BME280;14672;50.250;8.312;2022-10-31T09:08:17;99212.28;;;21.88;51.86
27144;BME280;14672;50.250;8.312;2022-10-31T09:10:43;99211.78;;;21.73;52.69
27144;BME280;14672;50.250;8.312;2022-10-31T09:13:16;99203.38;;;21.64;53.32
27144;BME280;14672;50.250;8.312;2022-10-31T09:15:45;99208.88;;;21.39;54.34
27144;BME280;14672;50.250;8.312;2022-10-31T09:18:13;99212.22;;;20.99;55.00
27144;BME280;14672;50.250;8.312;2022-10-31T09:20:40;99208.41;;;20.48;56.55
27144;BME280;14672;50.250;8.312;2022-10-31T09:23:12;99211.94;;;20.21;57.61
27144;BME280;14672;50.250;8.312;2022-10-31T09:25:38;99205.81;;;20.02;57.95
27144;BME280;14672;50.250;8.312;2022-10-31T09:28:07;99203.69;;;19.97;58.58
27144;BME280;14672;50.250;8.312;2022-10-31T09:30:34;99200.00;;;19.97;58.62
27144;BME280;14672;50.250;8.312;2022-10-31T09:33:08;99202.34;;;19.93;59.13
27144;BME280;14672;50.250;8.312;2022-10-31T09:35:34;99193.94;;;19.89;59.04
27144;BME280;14672;50.250;8.312;2022-10-31T09:49:53;99189.75;;;19.96;59.54
27144;BME280;14672;50.250;8.312;2022-10-31T09:52:32;99190.84;;;20.04;59.31
27144;BME280;14672;50.250;8.312;2022-10-31T09:55:27;99191.34;;;19.97;59.37
27144;BME280;14672;50.250;8.312;2022-10-31T09:57:50;99186.38;;;20.03;58.94
27144;BME280;14672;50.250;8.312;2022-10-31T10:00:20;99189.81;;;20.07;59.05
27144;BME280;14672;50.250;8.312;2022-10-31T10:03:11;99186.44;;;20.08;59.13
27144;BME280;14672;50.250;8.312;2022-10-31T10:05:51;99185.38;;;20.11;59.25
27144;BME280;14672;50.250;8.312;2022-10-31T10:08:23;99180.41;;;20.12;59.15
27144;BME280;14672;50.250;8.312;2022-10-31T10:16:15;99177.81;;;20.14;59.06
27144;BME280;14672;50.250;8.312;2022-10-31T10:22:42;99170.25;;;20.28;58.73
27144;BME280;14672;50.250;8.312;2022-10-31T10:25:07;99172.16;;;20.36;59.16
27144;BME280;14672;50.250;8.312;2022-10-31T10:31:01;99163.75;;;20.38;58.86
27144;BME280;14672;50.250;8.312;2022-10-31T10:33:37;99168.25;;;20.50;58.48
27144;BME280;14672;50.250;8.312;2022-10-31T10:36:09;99163.03;;;20.54;58.58
27144;BME280;14672;50.250;8.312;2022-10-31T10:38:52;99165.13;;;20.59;58.93
27144;BME280;14672;50.250;8.312;2022-10-31T10:41:23;99167.50;;;20.67;58.70
27144;BME280;14672;50.250;8.312;2022-10-31T10:43:51;99157.31;;;20.77;58.43
27144;BME280;14672;50.250;8.312;2022-10-31T10:46:44;99158.91;;;20.78;57.86
27144;BME280;14672;50.250;8.312;2022-10-31T10:49:51;99162.06;;;20.85;57.48
27144;BME280;14672;50.250;8.312;2022-10-31T10:55:15;99146.06;;;20.90;57.71
27144;BME280;14672;50.250;8.312;2022-10-31T10:58:02;99147.63;;;20.91;57.87
27144;BME280;14672;50.250;8.312;2022-10-31T11:03:00;99132.69;;;21.09;57.08
27144;BME280;14672;50.250;8.312;2022-10-31T11:08:09;99126.13;;;21.31;56.42
27144;BME280;14672;50.250;8.312;2022-10-31T11:10:35;99125.03;;;21.50;56.07
27144;BME280;14672;50.250;8.312;2022-10-31T11:13:22;99114.78;;;21.61;55.82
27144;BME280;14672;50.250;8.312;2022-10-31T11:16:15;99116.31;;;21.78;55.96
27144;BME280;14672;50.250;8.312;2022-10-31T11:18:52;99111.31;;;21.84;56.03
27144;BME280;14672;50.250;8.312;2022-10-31T11:21:29;99098.38;;;21.91;56.05
27144;BME280;14672;50.250;8.312;2022-10-31T11:26:37;99088.66;;;22.05;56.27
27144;BME280;14672;50.250;8.312;2022-10-31T11:29:13;99086.25;;;22.09;56.16
27144;BME280;14672;50.250;8.312;2022-10-31T11:31:40;99082.22;;;22.23;55.69
27144;BME280;14672;50.250;8.312;2022-10-31T11:36:50;99084.59;;;22.25;54.85
27144;BME280;14672;50.250;8.312;2022-10-31T11:39:23;99081.16;;;22.26;55.24
27144;BME280;14672;50.250;8.312;2022-10-31T11:41:52;99074.56;;;22.26;55.79
27144;BME280;14672;50.250;8.312;2022-10-31T11:44:30;99069.28;;;22.30;55.39
27144;BME280;14672;50.250;8.312;2022-10-31T11:47:03;99058.00;;;22.26;55.81
27144;BME280;14672;50.250;8.312;2022-10-31T11:49:38;99055.88;;;22.32;55.85
27144;BME280;14672;50.250;8.312;2022-10-31T11:52:19;99047.50;;;22.23;55.83
27144;BME280;14672;50.250;8.312;2022-10-31T11:54:59;99052.78;;;22.19;55.79
27144;BME280;14672;50.250;8.312;2022-10-31T12:00:03;99053.09;;;22.10;55.83
27144;BME280;14672;50.250;8.312;2022-10-31T12:02:30;99052.56;;;22.12;55.44
27144;BME280;14672;50.250;8.312;2022-10-31T12:05:18;99046.00;;;22.11;56.41
27144;BME280;14672;50.250;8.312;2022-10-31T12:07:46;99053.38;;;22.07;56.37
27144;BME280;14672;50.250;8.312;2022-10-31T12:10:13;99051.84;;;22.00;55.94
27144;BME280;14672;50.250;8.312;2022-10-31T12:21:24;99055.97;;;22.10;57.13
27144;BME280;14672;50.250;8.312;2022-10-31T12:24:33;99043.31;;;22.19;56.79
27144;BME280;14672;50.250;8.312;2022-10-31T12:27:17;99046.94;;;22.30;57.05
27144;BME280;14672;50.250;8.312;2022-10-31T12:30:40;99023.19;;;22.37;56.63
27144;BME280;14672;50.250;8.312;2022-10-31T12:36:24;98997.06;;;22.48;56.93
27144;BME280;14672;50.250;8.312;2022-10-31T12:39:02;98995.47;;;22.53;56.12
27144;BME280;14672;50.250;8.312;2022-10-31T12:41:52;98992.50;;;22.59;55.81
27144;BME280;14672;50.250;8.312;2022-10-31T12:48:05;98972.09;;;23.05;53.26
27144;BME280;14672;50.250;8.312;2022-10-31T13:00:04;98953.38;;;23.30;49.40
27144;BME280;14672;50.250;8.312;2022-10-31T13:02:51;98960.88;;;23.20;49.42
27144;BME280;14672;50.250;8.312;2022-10-31T13:05:36;98949.59;;;23.17;49.08
27144;BME280;14672;50.250;8.312;2022-10-31T13:08:21;98947.56;;;23.30;49.26
27144;BME280;14672;50.250;8.312;2022-10-31T13:11:10;98940.38;;;23.37;49.02
27144;BME280;14672;50.250;8.312;2022-10-31T13:14:29;98933.06;;;23.55;48.56
27144;BME280;14672;50.250;8.312;2022-10-31T13:16:55;98921.00;;;23.69;48.44
27144;BME280;14672;50.250;8.312;2022-10-31T13:19:36;98920.22;;;23.50;48.44
27144;BME280;14672;50.250;8.312;2022-10-31T13:22:20;98927.13;;;23.47;48.31
27144;BME280;14672;50.250;8.312;2022-10-31T13:25:15;98911.63;;;23.39;48.69
27144;BME280;14672;50.250;8.312;2022-10-31T13:28:05;98906.13;;;23.35;49.20
27144;BME280;14672;50.250;8.312;2022-10-31T13:30:39;98910.44;;;23.29;49.43
27144;BME280;14672;50.250;8.312;2022-10-31T13:33:25;98903.38;;;23.24;48.85
27144;BME280;14672;50.250;8.312;2022-10-31T13:36:13;98905.56;;;23.18;48.87
27144;BME280;14672;50.250;8.312;2022-10-31T13:38:59;98908.81;;;23.09;48.60
27144;BME280;14672;50.250;8.312;2022-10-31T13:44:28;98892.03;;;23.02;48.85
27144;BME280;14672;50.250;8.312;2022-10-31T13:46:58;98882.16;;;22.92;49.22
27144;BME280;14672;50.250;8.312;2022-10-31T13:54:43;98903.09;;;22.79;49.56
27144;BME280;14672;50.250;8.312;2022-10-31T13:57:31;98897.59;;;22.76;49.70
27144;BME280;14672;50.250;8.312;2022-10-31T14:00:24;98900.53;;;22.40;50.00
27144;BME280;14672;50.250;8.312;2022-10-31T14:02:55;98895.94;;;22.56;50.66
27144;BME280;14672;50.250;8.312;2022-10-31T14:05:35;98907.25;;;22.54;50.98
27144;BME280;14672;50.250;8.312;2022-10-31T14:08:05;98905.00;;;22.41;50.57
27144;BME280;14672;50.250;8.312;2022-10-31T14:10:50;98904.72;;;22.45;50.53
27144;BME280;14672;50.250;8.312;2022-10-31T14:16:06;98888.22;;;22.34;50.49
27144;BME280;14672;50.250;8.312;2022-10-31T14:18:48;98872.47;;;22.30;51.14
27144;BME280;14672;50.250;8.312;2022-10-31T14:23:52;98876.78;;;22.18;51.01
27144;BME280;14672;50.250;8.312;2022-10-31T14:32:05;98889.81;;;22.00;52.39
27144;BME280;14672;50.250;8.312;2022-10-31T14:37:27;98883.28;;;21.94;52.32
27144;BME280;14672;50.250;8.312;2022-10-31T14:52:07;98870.13;;;22.28;53.69
27144;BME280;14672;50.250;8.312;2022-10-31T14:54:39;98865.13;;;22.29;52.83
27144;BME280;14672;50.250;8.312;2022-10-31T14:57:25;98867.56;;;22.19;53.12
27144;BME280;14672;50.250;8.312;2022-10-31T15:00:02;98868.16;;;22.12;53.09
27144;BME280;14672;50.250;8.312;2022-10-31T15:05:35;98862.47;;;22.01;52.82
27144;BME280;14672;50.250;8.312;2022-10-31T15:08:25;98862.09;;;22.10;52.87
27144;BME280;14672;50.250;8.312;2022-10-31T15:10:52;98851.38;;;22.05;53.12
27144;BME280;14672;50.250;8.312;2022-10-31T15:13:21;98852.72;;;21.98;53.16
27144;BME280;14672;50.250;8.312;2022-10-31T15:15:49;98849.38;;;21.89;53.48
27144;BME280;14672;50.250;8.312;2022-10-31T15:18:25;98853.31;;;21.86;53.57
27144;BME280;14672;50.250;8.312;2022-10-31T15:20:54;98846.81;;;21.80;53.46
27144;BME280;14672;50.250;8.312;2022-10-31T15:23:28;98844.72;;;21.75;53.65
27144;BME280;14672;50.250;8.312;2022-10-31T15:26:01;98844.78;;;21.69;53.88
27144;BME280;14672;50.250;8.312;2022-10-31T15:28:28;98848.00;;;21.54;53.78
27144;BME280;14672;50.250;8.312;2022-10-31T15:31:00;98842.00;;;21.52;53.93
27144;BME280;14672;50.250;8.312;2022-10-31T15:33:39;98838.59;;;21.48;54.53
27144;BME280;14672;50.250;8.312;2022-10-31T15:36:05;98843.38;;;21.40;54.76
27144;BME280;14672;50.250;8.312;2022-10-31T15:38:31;98837.66;;;21.29;55.80
27144;BME280;14672;50.250;8.312;2022-10-31T15:41:06;98836.59;;;21.27;56.12
27144;BME280;14672;50.250;8.312;2022-10-31T15:43:46;98832.97;;;21.21;56.31